Time;durP1;ratioP1;P1;durP2;ratioP2;P2;SDS_P1;SDS_P2;PMS_P1;PMS_P2;Temp;Humidity;BMP_temperature;BMP_pressure;BME280_temperature;BME280_humidity;BME280_pressure;Samples;Min_cycle;Max_cycle;Signal;HPM_P1;HPM_P2
2022/08/10 00:02:40;;;;;;;;;;;15.10;99.90;;;;;;4988847;28;19948;-80
2022/08/10 00:05:11;;;;;;;;;;;15.10;99.90;;;;;;4978720;28;19930;-79
2022/08/10 00:07:37;;;;;;;;;;;15.10;99.90;;;;;;4989772;28;19980;-80
2022/08/10 00:10:06;;;;;;;;;;;15.10;99.90;;;;;;4977653;28;19934;-79
2022/08/10 00:12:32;;;;;;;;;;;15.20;99.90;;;;;;4972705;28;19945;-79
2022/08/10 00:15:01;;;;;;;;;;;15.10;99.90;;;;;;4976147;28;19922;-79
2022/08/10 00:17:27;;;;;;;;;;;15.10;99.90;;;;;;4958277;28;19926;-78
2022/08/10 00:19:52;;;;;;;;;;;15.00;99.90;;;;;;4977209;28;19944;-79
2022/08/10 00:22:18;;;;;;;;;;;15.10;99.90;;;;;;4988478;28;20307;-80
2022/08/10 00:24:44;;;;;;;;;;;15.10;99.90;;;;;;4972222;28;19925;-79
2022/08/10 00:27:10;;;;;;;;;;;15.00;99.90;;;;;;4972654;28;20261;-79
2022/08/10 00:29:35;;;;;;;;;;;15.00;99.90;;;;;;4978016;28;19952;-80
2022/08/10 00:32:01;;;;;;;;;;;14.90;99.90;;;;;;4961939;28;20435;-79
2022/08/10 00:34:28;;;;;;;;;;;14.90;99.90;;;;;;4994334;28;19929;-80
2022/08/10 00:36:54;;;;;;;;;;;14.90;99.90;;;;;;4981491;28;19929;-79
2022/08/10 00:39:19;;;;;;;;;;;14.90;99.90;;;;;;4966251;28;19979;-79
2022/08/10 00:41:45;;;;;;;;;;;14.80;99.90;;;;;;4972343;28;19968;-79
2022/08/10 00:44:11;;;;;;;;;;;14.80;99.90;;;;;;4991100;28;19922;-79
2022/08/10 00:46:36;;;;;;;;;;;14.80;99.90;;;;;;4977126;28;19929;-78
2022/08/10 00:49:02;;;;;;;;;;;14.80;99.90;;;;;;4976153;28;19929;-80
2022/08/10 00:51:28;;;;;;;;;;;14.80;99.90;;;;;;4908608;28;2235780;-80
2022/08/10 00:53:54;;;;;;;;;;;14.80;99.90;;;;;;4993657;28;20332;-78
2022/08/10 00:56:20;;;;;;;;;;;14.80;99.90;;;;;;4981589;28;20257;-80
2022/08/10 00:58:46;;;;;;;;;;;14.80;99.90;;;;;;4979934;28;19926;-80
2022/08/10 01:01:12;;;;;;;;;;;14.80;99.90;;;;;;4977182;28;19969;-81
2022/08/10 01:03:38;;;;;;;;;;;14.70;99.90;;;;;;4976820;28;19939;-81
2022/08/10 01:06:07;;;;;;;;;;;14.70;99.90;;;;;;4976404;28;19930;-80
2022/08/10 01:08:47;;;;;;;;;;;14.70;99.90;;;;;;4992120;28;19925;-79
2022/08/10 01:11:28;;;;;;;;;;;14.70;99.90;;;;;;4995003;28;19925;-79
2022/08/10 01:13:56;;;;;;;;;;;14.60;99.90;;;;;;4992309;28;19930;-81
2022/08/10 01:16:22;;;;;;;;;;;14.60;99.90;;;;;;4977567;28;19932;-79
2022/08/10 01:18:52;;;;;;;;;;;14.60;99.90;;;;;;4981195;28;20031;-82
2022/08/10 01:21:37;;;;;;;;;;;14.60;99.90;;;;;;4975507;28;19987;-79
2022/08/10 01:24:21;;;;;;;;;;;14.60;99.90;;;;;;4975472;28;20420;-82
2022/08/10 01:27:06;;;;;;;;;;;14.60;99.90;;;;;;4977986;28;19936;-79
2022/08/10 01:29:51;;;;;;;;;;;14.50;99.90;;;;;;4976463;28;20024;-81
2022/08/10 01:32:23;;;;;;;;;;;14.50;99.90;;;;;;4995782;28;19932;-81
2022/08/10 01:34:50;;;;;;;;;;;14.40;99.90;;;;;;4982884;28;20719;-83
2022/08/10 01:37:19;;;;;;;;;;;14.40;99.90;;;;;;4984761;28;20011;-84
2022/08/10 01:39:48;;;;;;;;;;;14.40;99.90;;;;;;4992274;28;19951;-80
2022/08/10 01:42:17;;;;;;;;;;;14.40;99.90;;;;;;5001913;28;20020;-83
2022/08/10 01:44:46;;;;;;;;;;;14.40;99.90;;;;;;4974496;28;19988;-81
2022/08/10 01:50:03;;;;;;;;;;;14.30;99.90;;;;;;5000082;28;19932;-82
2022/08/10 01:52:30;;;;;;;;;;;14.30;99.90;;;;;;5016574;28;20016;-80
2022/08/10 01:55:14;;;;;;;;;;;14.30;99.90;;;;;;5008266;28;19921;-81
2022/08/10 02:01:21;;;;;;;;;;;14.20;99.90;;;;;;5014967;28;19916;-80
2022/08/10 02:03:48;;;;;;;;;;;14.20;99.90;;;;;;4980912;28;19929;-85
2022/08/10 02:08:52;;;;;;;;;;;14.10;99.90;;;;;;5020193;23;20020;-78
2022/08/10 02:11:18;;;;;;;;;;;14.00;99.90;;;;;;4962713;28;19933;-79
2022/08/10 02:13:45;;;;;;;;;;;14.00;99.90;;;;;;4961763;28;20279;-85
2022/08/10 02:16:11;;;;;;;;;;;14.00;99.90;;;;;;4944951;28;19930;-84
2022/08/10 02:18:39;;;;;;;;;;;13.90;99.90;;;;;;4961721;28;19929;-83
2022/08/10 02:21:06;;;;;;;;;;;13.90;99.90;;;;;;4970436;28;19930;-81
2022/08/10 02:23:33;;;;;;;;;;;13.90;99.90;;;;;;4979434;28;20386;-83
2022/08/10 02:26:00;;;;;;;;;;;13.80;99.90;;;;;;4969962;28;19937;-81
2022/08/10 02:28:27;;;;;;;;;;;13.80;99.90;;;;;;4969760;28;19925;-80
2022/08/10 02:30:53;;;;;;;;;;;13.70;99.90;;;;;;4964810;28;20010;-82
2022/08/10 02:33:29;;;;;;;;;;;13.70;99.90;;;;;;4963890;28;19926;-83
2022/08/10 02:35:57;;;;;;;;;;;13.70;99.90;;;;;;4965582;28;19982;-81
2022/08/10 02:38:33;;;;;;;;;;;13.60;99.90;;;;;;4963174;28;19936;-85
2022/08/10 02:41:03;;;;;;;;;;;13.60;99.90;;;;;;4986225;28;19984;-83
2022/08/10 02:43:33;;;;;;;;;;;13.60;99.90;;;;;;4958561;28;19957;-82
2022/08/10 02:46:03;;;;;;;;;;;13.60;99.90;;;;;;4972512;28;20001;-85
2022/08/10 02:48:41;;;;;;;;;;;13.60;99.90;;;;;;4972904;28;19937;-82
2022/08/10 02:51:18;;;;;;;;;;;13.60;99.90;;;;;;4990637;28;20388;-83
2022/08/10 02:53:46;;;;;;;;;;;13.60;99.90;;;;;;4958103;28;19935;-85
2022/08/10 02:56:28;;;;;;;;;;;13.60;99.90;;;;;;4974370;28;19925;-82
2022/08/10 02:58:57;;;;;;;;;;;13.60;99.90;;;;;;4972111;28;19929;-85
2022/08/10 03:01:25;;;;;;;;;;;13.70;99.90;;;;;;4975794;28;20331;-86
2022/08/10 03:03:57;;;;;;;;;;;13.70;99.90;;;;;;4973276;28;19969;-81
2022/08/10 03:06:27;;;;;;;;;;;13.70;99.90;;;;;;4958803;28;19933;-81
2022/08/10 03:08:54;;;;;;;;;;;13.70;99.90;;;;;;4969461;28;19933;-89
2022/08/10 03:11:28;;;;;;;;;;;13.70;99.90;;;;;;4959540;28;20388;-89
2022/08/10 03:13:56;;;;;;;;;;;13.70;99.90;;;;;;4974391;28;19938;-82
2022/08/10 03:16:22;;;;;;;;;;;13.70;99.90;;;;;;4959471;28;20352;-82
2022/08/10 03:18:52;;;;;;;;;;;13.70;99.90;;;;;;4955480;28;20088;-88
2022/08/10 03:21:19;;;;;;;;;;;13.70;99.90;;;;;;4981816;28;20418;-88
2022/08/10 03:23:45;;;;;;;;;;;13.70;99.90;;;;;;4961360;28;19925;-83
2022/08/10 03:26:12;;;;;;;;;;;13.80;99.90;;;;;;4957271;28;19926;-89
2022/08/10 03:28:39;;;;;;;;;;;13.80;99.90;;;;;;4955922;28;19925;-90
2022/08/10 03:31:08;;;;;;;;;;;13.80;99.90;;;;;;4936696;28;20549;-81
2022/08/10 03:33:37;;;;;;;;;;;13.80;99.90;;;;;;4940402;28;19976;-83
2022/08/10 03:36:03;;;;;;;;;;;13.80;99.90;;;;;;4971526;28;20311;-82
2022/08/10 03:38:52;;;;;;;;;;;13.80;99.90;;;;;;4957845;28;20272;-89
2022/08/10 03:41:40;;;;;;;;;;;13.80;99.90;;;;;;4958397;28;19976;-81
2022/08/10 03:44:07;;;;;;;;;;;13.80;99.90;;;;;;4954118;28;20545;-82
2022/08/10 03:46:36;;;;;;;;;;;13.80;99.90;;;;;;4973460;28;20374;-82
2022/08/10 03:49:02;;;;;;;;;;;13.80;99.90;;;;;;4957368;28;20016;-82
2022/08/10 03:51:31;;;;;;;;;;;13.70;99.90;;;;;;4954523;28;19937;-89
2022/08/10 03:53:57;;;;;;;;;;;13.70;99.90;;;;;;4970389;28;20356;-82
2022/08/10 03:56:23;;;;;;;;;;;13.70;99.90;;;;;;4964281;28;19938;-88
2022/08/10 03:58:49;;;;;;;;;;;13.70;99.90;;;;;;4970910;28;20281;-82
2022/08/10 04:01:17;;;;;;;;;;;13.60;99.90;;;;;;4968523;28;20012;-83
2022/08/10 04:03:43;;;;;;;;;;;13.60;99.90;;;;;;4952236;28;19968;-84
2022/08/10 04:06:10;;;;;;;;;;;13.60;99.90;;;;;;4959078;28;19929;-82
2022/08/10 04:08:48;;;;;;;;;;;13.50;99.90;;;;;;4953463;28;19974;-83
2022/08/10 04:11:14;;;;;;;;;;;12.60;99.90;;;;;;4977536;23;19934;-84
2022/08/10 04:13:44;;;;;;;;;;;13.50;99.90;;;;;;4929174;28;19926;-89
2022/08/10 04:16:13;;;;;;;;;;;13.50;99.90;;;;;;4952387;28;20013;-83
2022/08/10 04:18:39;;;;;;;;;;;13.50;99.90;;;;;;4923816;28;20262;-83
2022/08/10 04:21:14;;;;;;;;;;;13.50;99.90;;;;;;4951102;28;20502;-84
2022/08/10 04:23:43;;;;;;;;;;;13.60;99.90;;;;;;4955023;28;19926;-81
2022/08/10 04:26:10;;;;;;;;;;;13.60;99.90;;;;;;4953344;28;19972;-89
2022/08/10 04:28:37;;;;;;;;;;;13.60;99.90;;;;;;4964187;28;21183;-82
2022/08/10 04:31:17;;;;;;;;;;;13.60;99.90;;;;;;4940498;28;20313;-89
2022/08/10 04:33:45;;;;;;;;;;;13.60;99.90;;;;;;4938326;28;20404;-84
2022/08/10 04:36:12;;;;;;;;;;;13.60;99.90;;;;;;4954886;28;20289;-83
2022/08/10 04:38:39;;;;;;;;;;;13.70;99.90;;;;;;4938686;28;19934;-84
2022/08/10 04:41:05;;;;;;;;;;;13.70;99.90;;;;;;4948155;28;20480;-83
2022/08/10 04:43:33;;;;;;;;;;;13.70;99.90;;;;;;4962694;28;20633;-82
2022/08/10 04:46:03;;;;;;;;;;;13.70;99.90;;;;;;4950788;28;19973;-86
2022/08/10 04:48:29;;;;;;;;;;;13.70;99.90;;;;;;4960877;28;20012;-83
2022/08/10 04:51:00;;;;;;;;;;;13.70;99.90;;;;;;4935088;28;19926;-83
2022/08/10 04:53:34;;;;;;;;;;;13.80;99.90;;;;;;4939154;28;19930;-84
2022/08/10 04:56:00;;;;;;;;;;;13.70;99.90;;;;;;4947842;28;19937;-83
2022/08/10 04:58:26;;;;;;;;;;;13.80;99.90;;;;;;4932425;29;19930;-83
2022/08/10 05:00:52;;;;;;;;;;;13.80;99.90;;;;;;4944362;28;20632;-83
2022/08/10 05:03:17;;;;;;;;;;;13.80;99.90;;;;;;4933741;28;19972;-83
2022/08/10 05:05:43;;;;;;;;;;;13.90;99.90;;;;;;4959216;28;19938;-82
2022/08/10 05:08:09;;;;;;;;;;;13.90;99.90;;;;;;4938309;28;19949;-83
2022/08/10 05:10:35;;;;;;;;;;;14.00;99.90;;;;;;4939187;28;20007;-82
2022/08/10 05:13:01;;;;;;;;;;;14.00;99.90;;;;;;4924444;28;20305;-82
2022/08/10 05:15:27;;;;;;;;;;;14.10;99.90;;;;;;4924554;28;19923;-81
2022/08/10 05:18:03;;;;;;;;;;;14.20;99.90;;;;;;4942941;28;19926;-89
2022/08/10 05:20:29;;;;;;;;;;;14.30;99.90;;;;;;4948372;28;19922;-84
2022/08/10 05:22:55;;;;;;;;;;;14.40;99.90;;;;;;4943701;28;19933;-82
2022/08/10 05:25:21;;;;;;;;;;;14.50;99.90;;;;;;4957048;28;19926;-79
2022/08/10 05:28:05;;;;;;;;;;;14.50;99.90;;;;;;4930320;29;20297;-83
2022/08/10 05:30:37;;;;;;;;;;;14.70;99.90;;;;;;5031850;23;20009;-85
2022/08/10 05:33:04;;;;;;;;;;;14.80;99.90;;;;;;5012991;28;20334;-80
2022/08/10 05:35:31;;;;;;;;;;;14.90;99.90;;;;;;4957710;28;19936;-84
2022/08/10 05:37:58;;;;;;;;;;;15.00;99.90;;;;;;4966781;28;19926;-82
2022/08/10 05:40:25;;;;;;;;;;;15.20;99.90;;;;;;4959728;28;19930;-84
2022/08/10 05:42:51;;;;;;;;;;;15.30;99.90;;;;;;4994012;28;20028;-86
2022/08/10 05:45:26;;;;;;;;;;;15.50;99.90;;;;;;4975868;28;20020;-85
2022/08/10 05:48:11;;;;;;;;;;;15.70;99.90;;;;;;4977757;28;19958;-89
2022/08/10 05:50:37;;;;;;;;;;;15.80;99.90;;;;;;4979082;28;19947;-82
2022/08/10 05:53:09;;;;;;;;;;;16.00;99.90;;;;;;4998617;28;19925;-90
2022/08/10 05:55:36;;;;;;;;;;;16.10;99.90;;;;;;4978719;28;19933;-82
2022/08/10 05:58:02;;;;;;;;;;;16.30;99.90;;;;;;4977928;28;20020;-85
2022/08/10 06:00:29;;;;;;;;;;;16.40;99.90;;;;;;4973660;28;20611;-89
2022/08/10 06:02:57;;;;;;;;;;;16.60;99.90;;;;;;4990398;28;19965;-81
2022/08/10 06:05:30;;;;;;;;;;;16.70;99.90;;;;;;4993595;28;19980;-85
2022/08/10 06:07:56;;;;;;;;;;;;;;;;;;4984401;28;19925;-87
2022/08/10 06:10:28;;;;;;;;;;;17.00;99.90;;;;;;4977888;28;20531;-85
2022/08/10 06:15:43;;;;;;;;;;;17.30;99.90;;;;;;4993608;28;19976;-86
2022/08/10 06:18:08;;;;;;;;;;;17.50;99.90;;;;;;4976896;28;20450;-89
2022/08/10 06:20:36;;;;;;;;;;;17.60;99.90;;;;;;4974890;28;19926;-82
2022/08/10 06:23:03;;;;;;;;;;;17.90;99.90;;;;;;4977244;28;20266;-83
2022/08/10 06:25:29;;;;;;;;;;;18.10;99.90;;;;;;4991021;28;20028;-81
2022/08/10 06:27:56;;;;;;;;;;;18.40;99.90;;;;;;4992682;28;19965;-83
2022/08/10 06:30:23;;;;;;;;;;;18.50;99.90;;;;;;4989222;28;20001;-81
2022/08/10 06:32:50;;;;;;;;;;;18.50;99.90;;;;;;4982861;28;19995;-77
2022/08/10 06:35:17;;;;;;;;;;;18.60;99.90;;;;;;4995490;28;20008;-88
2022/08/10 06:37:43;;;;;;;;;;;18.70;99.90;;;;;;4988633;28;20311;-89
2022/08/10 06:40:10;;;;;;;;;;;18.70;99.90;;;;;;4991360;28;19988;-89
2022/08/10 06:42:41;;;;;;;;;;;18.80;99.90;;;;;;4993453;28;20020;-85
2022/08/10 06:45:08;;;;;;;;;;;18.90;99.90;;;;;;4987220;28;19976;-84
2022/08/10 06:47:43;;;;;;;;;;;18.90;99.90;;;;;;4984868;28;19926;-88
2022/08/10 06:50:12;;;;;;;;;;;19.00;99.90;;;;;;4986152;28;20288;-86
2022/08/10 06:52:45;;;;;;;;;;;19.10;99.90;;;;;;4962325;28;20515;-86
2022/08/10 06:55:13;;;;;;;;;;;19.20;99.90;;;;;;4976499;28;20032;-83
2022/08/10 06:57:40;;;;;;;;;;;19.40;99.90;;;;;;4972727;28;19938;-84
2022/08/10 07:00:08;;;;;;;;;;;19.60;99.90;;;;;;4973016;28;19929;-79
2022/08/10 07:02:43;;;;;;;;;;;19.80;99.90;;;;;;4973334;28;19929;-81
2022/08/10 07:05:13;;;;;;;;;;;19.90;99.90;;;;;;4991589;28;19929;-79
2022/08/10 07:07:41;;;;;;;;;;;20.00;99.90;;;;;;4976780;28;19930;-86
2022/08/10 07:10:09;;;;;;;;;;;20.20;99.90;;;;;;4976704;28;19997;-86
2022/08/10 07:12:35;;;;;;;;;;;20.20;99.90;;;;;;4991982;28;19931;-83
2022/08/10 07:15:02;;;;;;;;;;;20.50;99.90;;;;;;4988517;28;19925;-84
2022/08/10 07:17:49;;;;;;;;;;;20.70;99.90;;;;;;4994522;28;19977;-86
2022/08/10 07:20:16;;;;;;;;;;;;;;;;;;4975128;28;19930;-82
2022/08/10 07:22:43;;;;;;;;;;;21.60;99.90;;;;;;4991449;28;19929;-88
2022/08/10 07:25:10;;;;;;;;;;;22.20;99.90;;;;;;4974715;28;19991;-81
2022/08/10 07:27:38;;;;;;;;;;;22.90;99.90;;;;;;4989191;28;20016;-84
2022/08/10 07:30:08;;;;;;;;;;;23.70;99.90;;;;;;4975360;28;19979;-89
2022/08/10 07:32:35;;;;;;;;;;;24.40;99.90;;;;;;4975917;28;19930;-83
2022/08/10 07:35:02;;;;;;;;;;;25.40;99.90;;;;;;4959154;28;19930;-79
2022/08/10 07:37:32;;;;;;;;;;;26.20;99.90;;;;;;4975008;28;19926;-81
2022/08/10 07:40:01;;;;;;;;;;;26.90;99.90;;;;;;4992990;28;20406;-79
2022/08/10 07:42:28;;;;;;;;;;;27.60;99.90;;;;;;4982005;28;19925;-86
2022/08/10 07:44:54;;;;;;;;;;;28.10;99.90;;;;;;4987427;28;19929;-81
2022/08/10 07:47:27;;;;;;;;;;;28.50;99.90;;;;;;4996005;28;19933;-90
2022/08/10 07:49:58;;;;;;;;;;;28.90;97.20;;;;;;4978814;28;20005;-79
2022/08/10 07:52:25;;;;;;;;;;;29.10;96.50;;;;;;4984024;28;19937;-79
2022/08/10 07:54:51;;;;;;;;;;;29.10;94.70;;;;;;4976876;28;19929;-79
2022/08/10 07:57:18;;;;;;;;;;;28.80;93.30;;;;;;4993882;28;20336;-85
2022/08/10 07:59:47;;;;;;;;;;;28.80;92.90;;;;;;4979891;28;19940;-80
2022/08/10 08:02:31;;;;;;;;;;;28.90;93.00;;;;;;4975311;28;20383;-86
2022/08/10 08:05:00;;;;;;;;;;;29.20;92.90;;;;;;4976959;28;19926;-81
2022/08/10 08:07:31;;;;;;;;;;;29.40;90.90;;;;;;4999771;28;19926;-85
2022/08/10 08:10:05;;;;;;;;;;;29.60;87.50;;;;;;5004931;28;19925;-85
2022/08/10 08:12:57;;;;;;;;;;;29.90;89.30;;;;;;4984792;28;20414;-83
2022/08/10 08:15:37;;;;;;;;;;;30.00;88.00;;;;;;4997844;28;19932;-80
2022/08/10 08:18:05;;;;;;;;;;;30.30;87.00;;;;;;4998154;28;19932;-87
2022/08/10 08:20:56;;;;;;;;;;;30.60;85.80;;;;;;5014265;28;20393;-81
2022/08/10 08:23:38;;;;;;;;;;;30.70;86.30;;;;;;5001921;28;20487;-86
2022/08/10 08:26:09;;;;;;;;;;;30.90;83.70;;;;;;4983847;28;19983;-82
2022/08/10 08:29:14;;;;;;;;;;;30.80;81.60;;;;;;5015651;28;19983;-84
2022/08/10 08:31:44;;;;;;;;;;;30.60;80.70;;;;;;4981140;28;20329;-84
2022/08/10 08:34:49;;;;;;;;;;;30.60;80.50;;;;;;5010809;28;20002;-88
2022/08/10 08:37:18;;;;;;;;;;;30.50;80.40;;;;;;4995353;28;19929;-82
2022/08/10 08:39:51;;;;;;;;;;;30.60;80.80;;;;;;5016677;28;20299;-82
2022/08/10 08:42:57;;;;;;;;;;;;;;;;;;;;;
2022/08/10 08:52:08;;;;;;;;;;;31.10;78.90;;;;;;5014015;28;20270;-91
2022/08/10 08:55:25;;;;;;;;;;;30.90;76.40;;;;;;4890714;29;20041;-85
2022/08/10 08:58:10;;;;;;;;;;;30.50;78.20;;;;;;4910381;29;19928;-83
2022/08/10 09:01:21;;;;;;;;;;;30.60;79.10;;;;;;5016368;28;19944;-83
2022/08/10 09:04:10;;;;;;;;;;;30.40;80.20;;;;;;4994365;28;19937;-86
2022/08/10 09:07:17;;;;;;;;;;;30.20;79.90;;;;;;4990292;28;19928;-85
2022/08/10 09:17:16;;;;;;;;;;;28.80;80.50;;;;;;4949867;28;19965;-92
2022/08/10 09:20:16;;;;;;;;;;;28.50;81.00;;;;;;4951954;28;19930;-84
2022/08/10 09:23:01;;;;;;;;;;;28.20;83.00;;;;;;5005949;28;19992;-82
2022/08/10 09:29:20;;;;;;;;;;;28.00;84.30;;;;;;5011776;28;20019;-82
2022/08/10 09:32:09;;;;;;;;;;;27.90;84.90;;;;;;4985893;28;19929;-83
2022/08/10 09:35:17;;;;;;;;;;;28.00;84.40;;;;;;5013956;28;20028;-81
2022/08/10 09:38:09;;;;;;;;;;;28.10;83.80;;;;;;4991055;28;19960;-79
2022/08/10 09:41:28;;;;;;;;;;;28.10;84.60;;;;;;4941204;29;19938;-80
2022/08/10 09:44:31;;;;;;;;;;;28.10;84.60;;;;;;4932224;29;19981;-85
2022/08/10 09:47:41;;;;;;;;;;;28.30;84.30;;;;;;4941373;29;19926;-88
2022/08/10 09:50:11;;;;;;;;;;;28.40;83.00;;;;;;4928656;29;20006;-94
2022/08/10 09:52:51;;;;;;;;;;;28.50;82.20;;;;;;4972268;28;19960;-90
2022/08/10 09:55:36;;;;;;;;;;;28.60;84.50;;;;;;4975725;28;19925;-84
2022/08/10 09:58:05;;;;;;;;;;;28.70;83.30;;;;;;4994555;28;19973;-87
2022/08/10 10:00:41;;;;;;;;;;;28.80;83.50;;;;;;4979014;28;19925;-79
2022/08/10 10:03:13;;;;;;;;;;;28.90;82.00;;;;;;4974916;28;19952;-81
2022/08/10 10:05:54;;;;;;;;;;;29.00;82.60;;;;;;4977435;28;19926;-83
2022/08/10 10:08:50;;;;;;;;;;;29.00;81.60;;;;;;4995480;28;19933;-82
2022/08/10 10:11:53;;;;;;;;;;;29.20;81.40;;;;;;4928054;29;19931;-92
2022/08/10 10:15:19;;;;;;;;;;;29.40;80.40;;;;;;4939102;29;20017;-85
2022/08/10 10:18:04;;;;;;;;;;;29.50;80.30;;;;;;4933045;29;20029;-85
2022/08/10 10:20:49;;;;;;;;;;;29.60;79.70;;;;;;4867458;29;19927;-83
2022/08/10 10:23:20;;;;;;;;;;;29.70;79.10;;;;;;4937866;28;19985;-82
2022/08/10 10:26:18;;;;;;;;;;;29.70;78.90;;;;;;4948172;28;19997;-82
2022/08/10 10:28:58;;;;;;;;;;;29.70;77.60;;;;;;4919314;29;19977;-80
2022/08/10 10:31:30;;;;;;;;;;;29.70;78.40;;;;;;4930610;29;19934;-85
2022/08/10 10:33:58;;;;;;;;;;;29.80;78.10;;;;;;4943447;28;19930;-81
2022/08/10 10:36:25;;;;;;;;;;;29.80;76.80;;;;;;4995842;28;20101;-84
2022/08/10 10:38:54;;;;;;;;;;;29.90;76.80;;;;;;4995490;28;20253;-80
2022/08/10 10:41:27;;;;;;;;;;;30.10;75.30;;;;;;4976330;28;19975;-82
2022/08/10 10:44:25;;;;;;;;;;;30.20;76.70;;;;;;4974655;28;19929;-83
2022/08/10 10:47:08;;;;;;;;;;;30.30;76.20;;;;;;4958186;28;19929;-79
2022/08/10 10:49:37;;;;;;;;;;;30.40;75.10;;;;;;4961956;28;20015;-82
2022/08/10 10:52:26;;;;;;;;;;;30.50;74.80;;;;;;4989482;28;19929;-78
2022/08/10 10:55:26;;;;;;;;;;;30.50;73.60;;;;;;4991974;28;19932;-80
2022/08/10 11:02:04;;;;;;;;;;;30.50;73.20;;;;;;4988733;28;20451;-83
2022/08/10 11:05:07;;;;;;;;;;;30.50;73.90;;;;;;4960747;28;19969;-84
2022/08/10 11:08:08;;;;;;;;;;;30.40;73.20;;;;;;4905706;28;20171;-83
2022/08/10 11:10:45;;;;;;;;;;;30.40;74.80;;;;;;4975168;28;19974;-84
2022/08/10 11:17:02;;;;;;;;;;;30.20;71.90;;;;;;4962327;28;19981;-85
2022/08/10 11:19:47;;;;;;;;;;;30.10;70.80;;;;;;4957913;28;20012;-85
2022/08/10 11:22:45;;;;;;;;;;;;;;;;;;;;;
2022/08/10 11:25:40;;;;;;;;;;;30.10;71.90;;;;;;4938913;28;19933;-85
2022/08/10 11:28:34;;;;;;;;;;;30.30;71.20;;;;;;4970010;28;19934;-82
2022/08/10 11:31:39;;;;;;;;;;;30.20;69.30;;;;;;4998317;28;19920;-83
2022/08/10 11:34:22;;;;;;;;;;;30.20;69.30;;;;;;4966443;28;19926;-90
2022/08/10 11:37:45;;;;;;;;;;;30.00;70.80;;;;;;4914724;29;19938;-87
2022/08/10 11:40:20;;;;;;;;;;;30.20;70.80;;;;;;4874649;29;19938;-88
2022/08/10 11:42:46;;;;;;;;;;;30.20;68.00;;;;;;4959257;28;19930;-83
2022/08/10 11:45:26;;;;;;;;;;;30.00;67.70;;;;;;4957545;28;20697;-85
2022/08/10 11:47:55;;;;;;;;;;;30.00;68.10;;;;;;4954165;28;19930;-82
2022/08/10 11:50:21;;;;;;;;;;;30.00;71.00;;;;;;4982496;28;19926;-82
2022/08/10 11:52:46;;;;;;;;;;;30.00;67.20;;;;;;4975012;28;19936;-87
2022/08/10 11:55:13;;;;;;;;;;;29.90;69.50;;;;;;4973254;28;19930;-85
2022/08/10 11:57:40;;;;;;;;;;;29.90;68.40;;;;;;4954711;28;19933;-83
2022/08/10 12:00:16;;;;;;;;;;;29.90;68.80;;;;;;4962266;28;19929;-79
2022/08/10 12:02:51;;;;;;;;;;;29.80;69.50;;;;;;4983011;23;20029;-82
2022/08/10 12:05:16;;;;;;;;;;;29.50;69.20;;;;;;4957628;28;19933;-81
2022/08/10 12:07:47;;;;;;;;;;;29.60;69.30;;;;;;4937509;28;19934;-89
2022/08/10 12:10:14;;;;;;;;;;;29.50;68.60;;;;;;4951326;28;19930;-84
2022/08/10 12:13:00;;;;;;;;;;;29.50;68.90;;;;;;4945238;28;19922;-83
2022/08/10 12:15:40;;;;;;;;;;;29.40;67.80;;;;;;4978734;28;20546;-81
2022/08/10 12:18:26;;;;;;;;;;;29.10;66.70;;;;;;4923361;28;19922;-85
2022/08/10 12:20:55;;;;;;;;;;;29.10;67.70;;;;;;4945527;28;20408;-82
2022/08/10 12:23:28;;;;;;;;;;;29.00;70.20;;;;;;4957816;28;19930;-82
2022/08/10 12:25:57;;;;;;;;;;;28.90;72.00;;;;;;4953351;28;20020;-82
2022/08/10 12:28:43;;;;;;;;;;;28.80;72.20;;;;;;4954324;28;19926;-83
2022/08/10 12:31:27;;;;;;;;;;;28.70;70.20;;;;;;4942438;28;19992;-88
2022/08/10 12:34:04;;;;;;;;;;;28.50;69.00;;;;;;4951709;28;19936;-81
2022/08/10 12:36:49;;;;;;;;;;;28.40;69.70;;;;;;4959198;28;20465;-81
2022/08/10 12:39:18;;;;;;;;;;;28.40;72.50;;;;;;4938567;28;19930;-82
2022/08/10 12:41:48;;;;;;;;;;;28.30;72.10;;;;;;4957912;28;19926;-91
2022/08/10 12:54:17;;;;;;;;;;;28.00;72.90;;;;;;4968362;28;19926;-87
2022/08/10 12:56:45;;;;;;;;;;;28.00;72.10;;;;;;4974416;28;19928;-89
2022/08/10 12:59:12;;;;;;;;;;;27.80;71.50;;;;;;4957328;28;19936;-82
2022/08/10 13:01:38;;;;;;;;;;;27.70;73.10;;;;;;4973305;28;19921;-83
2022/08/10 13:04:08;;;;;;;;;;;27.60;72.30;;;;;;4993714;28;20495;-79
2022/08/10 13:06:45;;;;;;;;;;;27.50;73.10;;;;;;4953554;28;19926;-86
2022/08/10 13:09:30;;;;;;;;;;;27.50;74.00;;;;;;4971740;28;20035;-82
2022/08/10 13:12:04;;;;;;;;;;;27.40;73.90;;;;;;4974701;28;20015;-83
2022/08/10 13:14:50;;;;;;;;;;;27.40;74.10;;;;;;4958122;28;19988;-81
2022/08/10 13:17:36;;;;;;;;;;;27.30;75.10;;;;;;4957915;28;20579;-80
2022/08/10 13:20:25;;;;;;;;;;;27.20;75.40;;;;;;4946294;28;20040;-82
2022/08/10 13:22:53;;;;;;;;;;;27.10;75.80;;;;;;4971930;28;19926;-82
2022/08/10 13:25:24;;;;;;;;;;;27.10;76.70;;;;;;4969213;28;19936;-77
2022/08/10 13:27:51;;;;;;;;;;;27.00;76.70;;;;;;4960199;28;19926;-77
2022/08/10 13:30:18;;;;;;;;;;;26.90;75.70;;;;;;4960853;28;19930;-78
2022/08/10 13:32:51;;;;;;;;;;;26.80;76.90;;;;;;4959373;28;19969;-81
2022/08/10 13:35:18;;;;;;;;;;;26.70;77.30;;;;;;4974737;28;19929;-79
2022/08/10 13:37:46;;;;;;;;;;;26.70;77.90;;;;;;4962773;28;19929;-81
2022/08/10 13:45:19;;;;;;;;;;;26.60;79.00;;;;;;4994614;28;20380;-84
2022/08/10 13:47:53;;;;;;;;;;;26.60;79.80;;;;;;4978029;28;19991;-79
2022/08/10 13:50:21;;;;;;;;;;;26.50;79.50;;;;;;4972469;28;19930;-82
2022/08/10 13:52:54;;;;;;;;;;;26.40;79.60;;;;;;4974355;28;19933;-84
2022/08/10 13:55:24;;;;;;;;;;;26.40;79.60;;;;;;4959365;28;19977;-84
2022/08/10 13:57:51;;;;;;;;;;;26.40;80.70;;;;;;4974857;28;20366;-83
2022/08/10 14:00:18;;;;;;;;;;;26.30;80.90;;;;;;4963959;28;19930;-81
2022/08/10 14:03:22;;;;;;;;;;;26.30;81.30;;;;;;4958829;28;19929;-80
2022/08/10 14:05:51;;;;;;;;;;;26.30;82.40;;;;;;4899503;29;20019;-87
2022/08/10 14:08:20;;;;;;;;;;;26.20;82.60;;;;;;4898336;29;20029;-84
2022/08/10 14:10:50;;;;;;;;;;;26.20;83.10;;;;;;4936361;28;19984;-84
2022/08/10 14:13:17;;;;;;;;;;;26.20;81.90;;;;;;4957486;28;19926;-79
2022/08/10 14:15:44;;;;;;;;;;;26.20;82.10;;;;;;4959726;28;20020;-83
2022/08/10 14:18:12;;;;;;;;;;;26.10;81.50;;;;;;4973407;28;19987;-83
2022/08/10 14:20:39;;;;;;;;;;;26.10;81.70;;;;;;4961362;28;20158;-81
2022/08/10 14:23:06;;;;;;;;;;;26.10;82.30;;;;;;4961564;28;19984;-80
2022/08/10 14:25:56;;;;;;;;;;;26.10;82.80;;;;;;4969610;28;20013;-81
2022/08/10 14:28:41;;;;;;;;;;;26.00;83.30;;;;;;4936437;28;19937;-80
2022/08/10 14:31:21;;;;;;;;;;;25.90;83.40;;;;;;4970708;28;19933;-89
2022/08/10 14:33:57;;;;;;;;;;;25.90;83.20;;;;;;4969123;28;20521;-86
2022/08/10 14:36:43;;;;;;;;;;;25.90;82.40;;;;;;4975468;28;19973;-80
2022/08/10 14:39:18;;;;;;;;;;;25.90;83.10;;;;;;4954544;28;19953;-81
2022/08/10 14:41:45;;;;;;;;;;;25.80;84.00;;;;;;4977304;28;19976;-82
2022/08/10 14:44:12;;;;;;;;;;;25.80;84.40;;;;;;4953781;28;19926;-83
2022/08/10 14:46:42;;;;;;;;;;;25.80;85.30;;;;;;4970607;28;19932;-85
2022/08/10 14:49:15;;;;;;;;;;;25.80;86.10;;;;;;4963165;28;20039;-80
2022/08/10 14:51:42;;;;;;;;;;;25.70;86.30;;;;;;4954510;28;19972;-79
2022/08/10 14:54:12;;;;;;;;;;;25.70;87.60;;;;;;4980672;28;20513;-82
2022/08/10 14:56:39;;;;;;;;;;;25.60;88.40;;;;;;4964612;28;19930;-83
2022/08/10 14:59:06;;;;;;;;;;;25.60;89.40;;;;;;4971931;28;19929;-79
2022/08/10 15:01:33;;;;;;;;;;;25.60;90.60;;;;;;4945013;28;19926;-81
2022/08/10 15:04:01;;;;;;;;;;;25.60;91.40;;;;;;4951423;28;20025;-80
2022/08/10 15:06:31;;;;;;;;;;;25.50;92.30;;;;;;4974776;28;20341;-82
2022/08/10 15:09:06;;;;;;;;;;;25.50;93.50;;;;;;4974377;28;20268;-81
2022/08/10 15:11:33;;;;;;;;;;;25.50;93.80;;;;;;4968888;28;19972;-82
2022/08/10 15:14:06;;;;;;;;;;;25.50;94.40;;;;;;4954931;28;19929;-80
2022/08/10 15:16:33;;;;;;;;;;;25.50;95.00;;;;;;4970178;28;20277;-80
2022/08/10 15:18:59;;;;;;;;;;;25.50;95.30;;;;;;4964622;28;19951;-81
2022/08/10 15:21:31;;;;;;;;;;;25.50;95.60;;;;;;4963713;28;20304;-81
2022/08/10 15:23:57;;;;;;;;;;;25.40;97.20;;;;;;4958679;28;20012;-82
2022/08/10 15:26:25;;;;;;;;;;;25.40;97.00;;;;;;4980558;28;19929;-82
2022/08/10 15:28:53;;;;;;;;;;;25.40;96.90;;;;;;4975341;28;19926;-82
2022/08/10 15:31:19;;;;;;;;;;;25.40;98.20;;;;;;4960302;28;20338;-81
2022/08/10 15:39:28;;;;;;;;;;;25.30;99.90;;;;;;4993168;28;19925;-79
2022/08/10 15:41:56;;;;;;;;;;;25.30;99.90;;;;;;4957977;28;20265;-81
2022/08/10 15:44:32;;;;;;;;;;;25.30;99.30;;;;;;4957225;28;19934;-80
2022/08/10 15:47:02;;;;;;;;;;;25.20;99.90;;;;;;4962682;28;20024;-81
2022/08/10 15:49:41;;;;;;;;;;;25.20;99.90;;;;;;4954122;28;19933;-80
2022/08/10 15:52:13;;;;;;;;;;;25.20;99.90;;;;;;4920114;29;19927;-82
2022/08/10 15:54:51;;;;;;;;;;;25.10;99.90;;;;;;4908520;29;19963;-82